• Join FlightAware (Why Join?)
  • Login
  • US Flag 
09:18PM EST


 

Airport Tracker/Info


-or-


 

Live Flight TrackerFlight Track Log ✈ OPT448 ✈ 22-Apr-2013 ✈ KHPN - KMGM

Flight Track Log - Related Links

Times and Time Zones

All times are in EDT time to prevent confusion due to time zone crossing. See the OPT448 flight status page for this flight to view local times or setup timezone preferences in your user account.

Time Position Orientation Groundspeed Altitude Reporting Facility
EDT Latitude Longitude Course Direction KTS MPH feet Rate Location/Type
02:49PM 41.0333 -73.7333 239° Southwest 208 239 3,000  Level New York TRACON
02:50PM 41.0667 -73.8167 298° West 223 257 3,400 1,500 Climbing New York TRACON
02:51PM 41.0833 -73.8667 294° West 242 278 6,000 2,280 Climbing New York TRACON
02:52PM 41.0333 -73.9500 232° Southwest 241 277 8,000 1,920 Climbing New York TRACON
02:53PM 41.0000 -74.0167 236° Southwest 266 306 9,900 1,500 Climbing New York TRACON
02:54PM 40.9333 -74.1000 223° Southwest 272 313 11,000 1,800 Climbing New York TRACON
02:55PM 40.7632 -74.2877 239° Southwest  Level FlightAware Approximate
02:55PM 40.9000 -74.1833 242° Southwest 270 311 13,700  Level New York TRACON
02:56PM 40.8500 -74.2500 225° Southwest 274 315 15,600 1,680 Climbing New York TRACON
02:57PM 40.8000 -74.3333 232° Southwest 286 329 17,000 480 Climbing New York TRACON
02:59PM 40.7206 -74.4675 232° Southwest 296 341 17,000 600 Level New York Center
03:00PM 40.6719 -74.5550 234° Southwest 302 348 18,600 2,460 Climbing New York Center
03:01PM 40.6256 -74.6292 231° Southwest 302 348 21,900 3,120 Climbing New York Center
03:02PM 40.5794 -74.7058 232° Southwest 292 336 24,900 2,880 Climbing New York Center
03:03PM 40.5394 -74.7772 234° Southwest 269 310 27,800 1,800 Climbing New York Center
03:04PM 40.4931 -74.8508 230° Southwest 264 304 28,500 1,440 Climbing New York Center
03:06PM 40.3936 -75.0139 231° Southwest 276 318 32,100 1,620 Climbing New York Center
03:07PM 40.3453 -75.0819 227° Southwest 271 312 33,500 1,140 Climbing New York Center
03:08PM 40.2947 -75.1522 227° Southwest 271 312 34,400 780 Climbing New York Center
03:09PM 40.2419 -75.2250 226° Southwest 277 319 35,100 600 Climbing New York Center
03:10PM 40.1869 -75.3028 227° Southwest 287 330 35,700 540 Climbing New York Center
03:11PM 40.1317 -75.3836 228° Southwest 292 336 36,300 660 Climbing New York Center
03:12PM 40.0722 -75.4664 227° Southwest 303 349 37,100 720 Climbing New York Center
03:13PM 40.0128 -75.5464 226° Southwest 308 354 37,800 720 Climbing New York Center
03:14PM 39.9550 -75.6292 228° Southwest 308 354 38,600 720 Climbing New York Center
03:15PM 39.8975 -75.7117 228° Southwest 308 354 39,300 540 Climbing New York Center
03:16PM 39.8417 -75.7969 230° Southwest 308 354 39,700 300 Climbing New York Center
03:17PM 39.7856 -75.8875 231° Southwest 313 360 40,000 120 Climbing New York Center
03:18PM 39.7294 -75.9806 232° Southwest 323 372 40,000  Level New York Center
03:20PM 39.5933 -76.1867 229° Southwest 345 397 40,000  Level Washington Center
03:21PM 39.5367 -76.2858 233° Southwest 352 405 40,000  Level Washington Center
03:22PM 39.4694 -76.3819 228° Southwest 352 405 40,000  Level Washington Center
03:23PM 39.4061 -76.4833 231° Southwest 357 411 40,000  Level Washington Center
03:24PM 39.3344 -76.5844 228° Southwest 368 423 40,000  Level Washington Center
03:25PM 39.2711 -76.6853 231° Southwest 373 429 40,000  Level Washington Center
03:26PM 39.2056 -76.7861 230° Southwest 373 429 40,000 120 Level Washington Center
03:27PM 39.1419 -76.8869 231° Southwest 373 429 40,300 300 Climbing Washington Center
03:28PM 39.0761 -76.9900 231° Southwest 373 429 40,700 420 Climbing Washington Center
03:29PM 39.0064 -77.0794 225° Southwest 368 423 41,200 480 Climbing Washington Center
03:30PM 38.9322 -77.1608 220° Southwest 363 418 41,700 420 Climbing Washington Center
03:31PM 38.8606 -77.2392 220° Southwest 363 418 42,100 420 Climbing Washington Center
03:32PM 38.7883 -77.3175 220° Southwest 351 404 42,600 360 Climbing Washington Center
03:33PM 38.7164 -77.3931 219° Southwest 351 404 42,900 180 Climbing Washington Center
03:34PM 38.6464 -77.4708 221° Southwest 339 390 43,000  Climbing Washington Center
03:35PM 38.5764 -77.5489 221° Southwest 339 390 43,000  Level Washington Center
03:36PM 38.5064 -77.6267 221° Southwest 339 390 43,000  Level Washington Center
03:37PM 38.4300 -77.7067 219° Southwest 345 397 43,000  Level Washington Center
03:38PM 38.3597 -77.7842 221° Southwest 345 397 43,000  Level Washington Center
03:39PM 38.2853 -77.8639 220° Southwest 345 397 43,000  Level Washington Center
03:40PM 38.2106 -77.9436 220° Southwest 345 397 43,000  Level Washington Center
03:41PM 38.1361 -78.0258 221° Southwest 345 397 43,000  Level Washington Center
03:42PM 38.0614 -78.1050 220° Southwest 350 403 43,000  Level Washington Center
03:43PM 37.9908 -78.1950 225° Southwest 337 388 43,000  Level Washington Center
03:44PM 37.9239 -78.2875 227° Southwest 337 388 43,000  Level Washington Center
03:45PM 37.8614 -78.3800 229° Southwest 347 399 43,000  Level Washington Center
03:46PM 37.7967 -78.4722 228° Southwest 353 406 43,000  Level Washington Center
03:47PM 37.7383 -78.5539 228° Southwest 353 406 43,000  Level Washington Center
03:48PM 37.6733 -78.6486 229° Southwest 353 406 43,000  Level Washington Center
03:49PM 37.6106 -78.7378 228° Southwest 353 406 43,000  Level Washington Center
03:50PM 37.5456 -78.8292 228° Southwest 353 406 43,000  Level Washington Center
03:51PM 37.4719 -78.9308 228° Southwest 353 406 43,000  Level Washington Center
03:52PM 37.4067 -79.0222 228° Southwest 359 413 43,000  Level Washington Center
03:53PM 37.3394 -79.1131 227° Southwest 359 413 43,000  Level Washington Center
03:54PM 37.2719 -79.2067 228° Southwest 359 413 43,000  Level Washington Center
03:55PM 37.2047 -79.2947 226° Southwest 359 413 43,000  Level Washington Center
03:56PM 37.1372 -79.3828 226° Southwest 359 413 43,000  Level Washington Center
03:57PM 37.0742 -79.4603 224° Southwest 359 413 43,000  Level Washington Center
03:58PM 37.0067 -79.5478 226° Southwest 359 413 43,000  Level Washington Center
03:59PM 36.9369 -79.6325 224° Southwest 359 413 43,000  Level Washington Center
04:00PM 36.8694 -79.7200 226° Southwest 359 413 43,000  Level Washington Center
04:01PM 36.7997 -79.8069 225° Southwest 359 413 43,000  Level Washington Center
04:04PM 36.5983 -80.0489 224° Southwest 342 394 43,000  Level Atlanta Center
04:05PM 36.5281 -80.1350 225° Southwest 349 402 43,000  Level Atlanta Center
04:06PM 36.4600 -80.2236 226° Southwest 354 407 43,000  Level Atlanta Center
04:07PM 36.3956 -80.2989 223° Southwest 359 413 43,000  Level Atlanta Center
04:08PM 36.3250 -80.3844 224° Southwest 359 413 43,000  Level Atlanta Center
04:09PM 36.2547 -80.4703 225° Southwest 359 413 43,000  Level Atlanta Center
04:10PM 36.1842 -80.5556 224° Southwest 359 413 43,000  Level Atlanta Center
04:11PM 36.1156 -80.6433 226° Southwest 354 407 43,000  Level Atlanta Center
04:12PM 36.0369 -80.7392 225° Southwest 354 407 43,000  Level Atlanta Center
04:13PM 35.9681 -80.8239 225° Southwest 360 414 43,000  Level Atlanta Center
04:14PM 35.8953 -80.9089 223° Southwest 365 420 43,000  Level Atlanta Center
04:15PM 35.8244 -80.9936 224° Southwest 365 420 43,000 -180 Level Atlanta Center
04:16PM 35.7536 -81.0806 225° Southwest 365 420 42,700 -600 Descending Atlanta Center
04:17PM 35.6783 -81.1703 224° Southwest 375 432 41,900 -1,020 Descending Atlanta Center
04:18PM 35.6053 -81.2494 221° Southwest 380 437 40,700 -960 Descending Atlanta Center
04:19PM 35.5303 -81.3492 227° Southwest 385 443 40,000 -360 Descending Atlanta Center
04:20PM 35.4406 -81.4514 223° Southwest 403 464 40,000  Level Atlanta Center
04:21PM 35.3653 -81.5428 225° Southwest 388 447 40,000  Level Atlanta Center
04:22PM 35.2878 -81.6317 223° Southwest 388 447 40,000  Level Atlanta Center
04:23PM 35.2122 -81.7203 224° Southwest 383 441 40,000  Level Atlanta Center
04:24PM 35.1367 -81.8089 224° Southwest 383 441 40,000  Level Atlanta Center
04:25PM 35.0592 -81.8997 224° Southwest 383 441 40,000  Level Atlanta Center
04:26PM 34.9939 -82.0003 232° Southwest 383 441 40,000  Level Atlanta Center
04:27PM 34.9289 -82.1031 232° Southwest 389 448 40,000  Level Atlanta Center
04:28PM 34.8761 -82.1931 234° Southwest 389 448 40,000  Level Atlanta Center
04:29PM 34.8108 -82.2958 232° Southwest 383 441 40,000  Level Atlanta Center
04:30PM 34.7475 -82.3981 233° Southwest 389 448 40,000  Level Atlanta Center
04:31PM 34.6842 -82.5006 233° Southwest 389 448 40,000  Level Atlanta Center
04:32PM 34.6167 -82.6153 234° Southwest 389 448 40,000  Level Atlanta Center
04:33PM 34.5511 -82.7172 232° Southwest 389 448 40,000  Level Atlanta Center
04:34PM 34.4894 -82.8189 234° Southwest 389 448 40,000  Level Atlanta Center
04:35PM 34.4300 -82.9181 234° Southwest 382 440 40,000  Level Atlanta Center
04:36PM 34.3639 -83.0222 232° Southwest 388 447 40,000  Level Atlanta Center
04:37PM 34.3000 -83.1233 233° Southwest 388 447 40,000 -180 Level Atlanta Center
04:38PM 34.2383 -83.2247 234° Southwest 388 447 39,700 -660 Descending Atlanta Center
04:39PM 34.1761 -83.3256 233° Southwest 388 447 38,700 -1,020 Descending Atlanta Center
04:40PM 34.1244 -83.4064 232° Southwest 370 426 37,700 -1,020 Descending Atlanta Center
04:41PM 34.0686 -83.4972 233° Southwest 346 398 36,700 -1,020 Descending Atlanta Center
04:42PM 34.0125 -83.5853 232° Southwest 346 398 35,700 -840 Descending Atlanta Center
04:43PM 33.9503 -83.6806 232° Southwest 351 404 35,100 -360 Descending Atlanta Center
04:44PM 33.8900 -83.7786 233° Southwest 363 418 35,000 -60 Descending Atlanta Center
04:45PM 33.8233 -83.8839 233° Southwest 363 418 35,000  Level Atlanta Center
04:46PM 33.7503 -83.9639 222° Southwest 363 418 35,000  Level Atlanta Center
04:47PM 33.6689 -84.0339 216° Southwest 361 415 35,000 -180 Level Atlanta Center
04:48PM 33.5875 -84.1036 216° Southwest 361 415 34,700 -660 Descending Atlanta Center
04:49PM 33.5061 -84.1833 219° Southwest 366 421 33,700 -1,080 Descending Atlanta Center
04:50PM 33.4475 -84.2903 237° Southwest 380 437 32,600 -960 Descending Atlanta Center
04:51PM 33.3950 -84.3897 238° Southwest 391 450 31,800 -960 Descending Atlanta Center
04:52PM 33.3364 -84.5014 238° Southwest 399 459 30,700 -1,140 Descending Atlanta Center
04:53PM 33.2794 -84.6078 237° Southwest 399 459 29,600 -1,080 Descending Atlanta Center
04:54PM 33.2206 -84.7142 237° Southwest 392 451 28,600 -1,020 Descending Atlanta Center
04:55PM 33.1636 -84.8256 239° Southwest 392 451 27,600 -1,020 Descending Atlanta Center
04:56PM 33.0897 -84.9364 232° Southwest 399 459 26,600 -900 Descending Atlanta Center
04:57PM 33.0056 -85.0222 221° Southwest 393 452 25,900 -900 Descending Atlanta Center
04:58PM 32.9256 -85.1128 224° Southwest 400 460 24,800 -1,200 Descending Atlanta Center
04:59PM 32.8539 -85.1861 221° Southwest 400 460 23,600 -1,440 Descending Atlanta Center
05:00PM 32.7736 -85.2717 222° Southwest 395 455 22,000 -1,800 Descending Atlanta Center
05:01PM 32.7267 -85.3747 242° Southwest 384 442 20,100 -1,980 Descending Atlanta Center
05:02PM 32.6817 -85.4800 243° Southwest 367 422 18,100 -1,920 Descending Atlanta Center
05:03PM 32.6408 -85.5881 246° West 361 415 16,300 -1,800 Descending Atlanta Center
05:04PM 32.5956 -85.6908 242° Southwest 356 410 14,600 -1,620 Descending Atlanta Center
05:05PM 32.5544 -85.7886 244° Southwest 351 404 13,100 -1,500 Descending Atlanta Center
05:06PM 32.5156 -85.8839 244° Southwest 339 390 11,600 -1,560 Descending Atlanta Center
05:07PM 32.4764 -85.9789 244° Southwest 334 384 10,000 -1,860 Descending Atlanta Center
05:08PM 32.4417 -86.0619 244° Southwest 308 354 7,900 -2,160 Descending Atlanta Center
05:09PM 32.4092 -86.1375 243° Southwest 280 322 5,700 -1,920 Descending Atlanta Center
05:10PM 32.4056 -86.2258 267° West 256 295 4,100 -1,200 Descending Atlanta Center
05:11PM 32.3981 -86.3019 263° West 246 283 3,400 -1,140 Descending Atlanta Center
05:12PM 32.3800 -86.3728 253° West 233 268 1,900 -840 Descending Atlanta Center
05:13PM 32.3536 -86.4386 245° Southwest 227 261 1,800 -480 Descending Atlanta Center
05:14PM 32.3117 -86.4522 195° South 177 204 1,000 -840 Descending Atlanta Center
05:16PM 32.3006 -86.3940 103° East  Level Estimated
05:23PM 32.3006 -86.3940 239° Southwest  Level Estimated